sensor_id;sensor_type;location;lat;lon;timestamp;temperature;humidity
5226;DHT22;2632;51.666;7.146;2022-07-04T00:00:02;17.10;73.20
5226;DHT22;2632;51.666;7.146;2022-07-04T00:02:29;17.10;73.30
5226;DHT22;2632;51.666;7.146;2022-07-04T00:04:56;16.90;73.70
5226;DHT22;2632;51.666;7.146;2022-07-04T00:07:23;16.90;73.70
5226;DHT22;2632;51.666;7.146;2022-07-04T00:09:49;16.90;73.90
5226;DHT22;2632;51.666;7.146;2022-07-04T00:12:16;16.80;74.40
5226;DHT22;2632;51.666;7.146;2022-07-04T00:14:43;16.70;74.20
5226;DHT22;2632;51.666;7.146;2022-07-04T00:17:10;16.80;75.10
5226;DHT22;2632;51.666;7.146;2022-07-04T00:19:37;16.70;74.70
5226;DHT22;2632;51.666;7.146;2022-07-04T00:22:04;16.70;74.40
5226;DHT22;2632;51.666;7.146;2022-07-04T00:24:30;16.80;74.10
5226;DHT22;2632;51.666;7.146;2022-07-04T00:26:57;16.60;74.60
5226;DHT22;2632;51.666;7.146;2022-07-04T00:29:24;16.60;74.80
5226;DHT22;2632;51.666;7.146;2022-07-04T00:31:50;16.60;75.50
5226;DHT22;2632;51.666;7.146;2022-07-04T00:34:17;16.60;75.20
5226;DHT22;2632;51.666;7.146;2022-07-04T00:36:44;16.60;75.10
5226;DHT22;2632;51.666;7.146;2022-07-04T00:39:10;16.50;75.70
5226;DHT22;2632;51.666;7.146;2022-07-04T00:41:37;16.40;75.90
5226;DHT22;2632;51.666;7.146;2022-07-04T00:44:05;16.50;76.50
5226;DHT22;2632;51.666;7.146;2022-07-04T00:46:44;16.50;76.10
5226;DHT22;2632;51.666;7.146;2022-07-04T00:49:14;16.40;76.50
5226;DHT22;2632;51.666;7.146;2022-07-04T00:51:43;16.40;76.60
5226;DHT22;2632;51.666;7.146;2022-07-04T00:54:12;16.30;76.30
5226;DHT22;2632;51.666;7.146;2022-07-04T00:56:41;16.20;77.10
5226;DHT22;2632;51.666;7.146;2022-07-04T00:59:09;16.30;77.60
5226;DHT22;2632;51.666;7.146;2022-07-04T01:01:36;16.20;77.30
5226;DHT22;2632;51.666;7.146;2022-07-04T01:04:04;16.10;77.80
5226;DHT22;2632;51.666;7.146;2022-07-04T01:06:32;16.10;77.20
5226;DHT22;2632;51.666;7.146;2022-07-04T01:09:00;16.10;77.70
5226;DHT22;2632;51.666;7.146;2022-07-04T01:11:27;16.10;78.30
5226;DHT22;2632;51.666;7.146;2022-07-04T01:13:54;16.20;79.30
5226;DHT22;2632;51.666;7.146;2022-07-04T01:16:21;16.10;77.40
5226;DHT22;2632;51.666;7.146;2022-07-04T01:18:51;16.20;78.60
5226;DHT22;2632;51.666;7.146;2022-07-04T01:21:19;16.20;78.50
5226;DHT22;2632;51.666;7.146;2022-07-04T01:23:46;16.10;78.70
5226;DHT22;2632;51.666;7.146;2022-07-04T01:26:13;16.20;78.70
5226;DHT22;2632;51.666;7.146;2022-07-04T01:28:40;16.10;78.60
5226;DHT22;2632;51.666;7.146;2022-07-04T01:31:06;16.10;78.80
5226;DHT22;2632;51.666;7.146;2022-07-04T01:33:33;16.00;78.70
5226;DHT22;2632;51.666;7.146;2022-07-04T01:36:00;16.10;79.00
5226;DHT22;2632;51.666;7.146;2022-07-04T01:38:27;16.10;78.40
5226;DHT22;2632;51.666;7.146;2022-07-04T01:40:53;16.10;78.60
5226;DHT22;2632;51.666;7.146;2022-07-04T01:43:20;16.10;78.50
5226;DHT22;2632;51.666;7.146;2022-07-04T01:45:47;16.10;79.00
5226;DHT22;2632;51.666;7.146;2022-07-04T01:48:14;15.90;79.20
5226;DHT22;2632;51.666;7.146;2022-07-04T01:50:41;15.70;80.20
5226;DHT22;2632;51.666;7.146;2022-07-04T01:53:08;15.80;80.70
5226;DHT22;2632;51.666;7.146;2022-07-04T01:55:34;15.80;81.20
5226;DHT22;2632;51.666;7.146;2022-07-04T01:58:01;15.80;80.90
5226;DHT22;2632;51.666;7.146;2022-07-04T02:00:28;15.90;80.50
5226;DHT22;2632;51.666;7.146;2022-07-04T02:03:13;15.70;80.90
5226;DHT22;2632;51.666;7.146;2022-07-04T02:05:41;15.80;81.40
5226;DHT22;2632;51.666;7.146;2022-07-04T02:08:08;15.60;81.60
5226;DHT22;2632;51.666;7.146;2022-07-04T02:10:36;15.60;80.80
5226;DHT22;2632;51.666;7.146;2022-07-04T02:13:03;15.60;81.80
5226;DHT22;2632;51.666;7.146;2022-07-04T02:15:38;15.50;82.20
5226;DHT22;2632;51.666;7.146;2022-07-04T02:18:07;15.50;82.10
5226;DHT22;2632;51.666;7.146;2022-07-04T02:20:34;15.50;81.90
5226;DHT22;2632;51.666;7.146;2022-07-04T02:23:02;15.60;81.60
5226;DHT22;2632;51.666;7.146;2022-07-04T02:25:29;15.50;81.80
5226;DHT22;2632;51.666;7.146;2022-07-04T02:27:56;15.60;81.50
5226;DHT22;2632;51.666;7.146;2022-07-04T02:30:23;15.50;82.40
5226;DHT22;2632;51.666;7.146;2022-07-04T02:32:50;15.40;82.10
5226;DHT22;2632;51.666;7.146;2022-07-04T02:35:17;15.20;82.50
5226;DHT22;2632;51.666;7.146;2022-07-04T02:37:43;15.10;83.70
5226;DHT22;2632;51.666;7.146;2022-07-04T02:40:10;15.10;84.10
5226;DHT22;2632;51.666;7.146;2022-07-04T02:42:37;15.10;84.20
5226;DHT22;2632;51.666;7.146;2022-07-04T02:45:05;15.00;84.10
5226;DHT22;2632;51.666;7.146;2022-07-04T02:47:32;15.00;83.40
5226;DHT22;2632;51.666;7.146;2022-07-04T02:49:59;14.90;84.40
5226;DHT22;2632;51.666;7.146;2022-07-04T02:52:28;14.80;84.90
5226;DHT22;2632;51.666;7.146;2022-07-04T02:54:56;14.80;85.00
5226;DHT22;2632;51.666;7.146;2022-07-04T02:57:22;14.70;85.40
5226;DHT22;2632;51.666;7.146;2022-07-04T02:59:49;14.70;85.10
5226;DHT22;2632;51.666;7.146;2022-07-04T03:02:16;14.70;85.30
5226;DHT22;2632;51.666;7.146;2022-07-04T03:04:42;14.70;84.90
5226;DHT22;2632;51.666;7.146;2022-07-04T03:07:09;14.70;84.70
5226;DHT22;2632;51.666;7.146;2022-07-04T03:09:36;14.70;84.80
5226;DHT22;2632;51.666;7.146;2022-07-04T03:12:02;14.60;84.60
5226;DHT22;2632;51.666;7.146;2022-07-04T03:14:29;14.60;84.70
5226;DHT22;2632;51.666;7.146;2022-07-04T03:16:56;14.60;84.30
5226;DHT22;2632;51.666;7.146;2022-07-04T03:19:23;14.40;84.50
5226;DHT22;2632;51.666;7.146;2022-07-04T03:21:49;14.40;84.70
5226;DHT22;2632;51.666;7.146;2022-07-04T03:24:16;14.20;84.70
5226;DHT22;2632;51.666;7.146;2022-07-04T03:26:43;14.20;85.00
5226;DHT22;2632;51.666;7.146;2022-07-04T03:29:09;14.10;85.00
5226;DHT22;2632;51.666;7.146;2022-07-04T03:31:36;14.10;85.80
5226;DHT22;2632;51.666;7.146;2022-07-04T03:34:03;14.10;85.80
5226;DHT22;2632;51.666;7.146;2022-07-04T03:36:29;14.00;85.90
5226;DHT22;2632;51.666;7.146;2022-07-04T03:38:56;14.00;85.80
5226;DHT22;2632;51.666;7.146;2022-07-04T03:41:22;13.90;86.10
5226;DHT22;2632;51.666;7.146;2022-07-04T03:43:49;13.90;86.10
5226;DHT22;2632;51.666;7.146;2022-07-04T03:46:16;13.90;86.50
5226;DHT22;2632;51.666;7.146;2022-07-04T03:48:42;13.90;86.20
5226;DHT22;2632;51.666;7.146;2022-07-04T03:51:12;13.90;86.40
5226;DHT22;2632;51.666;7.146;2022-07-04T03:53:39;13.90;86.60
5226;DHT22;2632;51.666;7.146;2022-07-04T03:56:06;13.90;86.80
5226;DHT22;2632;51.666;7.146;2022-07-04T03:58:32;13.90;86.80
5226;DHT22;2632;51.666;7.146;2022-07-04T04:00:59;13.90;86.80
5226;DHT22;2632;51.666;7.146;2022-07-04T04:03:27;13.90;86.70
5226;DHT22;2632;51.666;7.146;2022-07-04T04:06:12;13.90;87.00
5226;DHT22;2632;51.666;7.146;2022-07-04T04:08:38;13.90;86.80
5226;DHT22;2632;51.666;7.146;2022-07-04T04:11:05;13.90;87.10
5226;DHT22;2632;51.666;7.146;2022-07-04T04:13:32;13.90;86.80
5226;DHT22;2632;51.666;7.146;2022-07-04T04:15:58;14.00;86.90
5226;DHT22;2632;51.666;7.146;2022-07-04T04:18:25;14.00;87.20
5226;DHT22;2632;51.666;7.146;2022-07-04T04:20:52;14.00;86.90
5226;DHT22;2632;51.666;7.146;2022-07-04T04:23:18;13.90;87.30
5226;DHT22;2632;51.666;7.146;2022-07-04T04:25:46;13.90;87.30
5226;DHT22;2632;51.666;7.146;2022-07-04T04:28:20;13.90;87.30
5226;DHT22;2632;51.666;7.146;2022-07-04T04:30:47;14.10;87.80
5226;DHT22;2632;51.666;7.146;2022-07-04T04:33:14;14.10;87.40
5226;DHT22;2632;51.666;7.146;2022-07-04T04:35:41;14.10;85.70
5226;DHT22;2632;51.666;7.146;2022-07-04T04:38:07;14.10;86.70
5226;DHT22;2632;51.666;7.146;2022-07-04T04:40:34;14.20;87.00
5226;DHT22;2632;51.666;7.146;2022-07-04T04:43:00;14.20;87.00
5226;DHT22;2632;51.666;7.146;2022-07-04T04:45:27;14.20;87.60
5226;DHT22;2632;51.666;7.146;2022-07-04T04:47:54;14.30;87.50
5226;DHT22;2632;51.666;7.146;2022-07-04T04:50:21;14.50;87.10
5226;DHT22;2632;51.666;7.146;2022-07-04T04:52:47;14.60;86.20
5226;DHT22;2632;51.666;7.146;2022-07-04T04:55:14;14.70;85.80
5226;DHT22;2632;51.666;7.146;2022-07-04T04:57:40;14.70;86.40
5226;DHT22;2632;51.666;7.146;2022-07-04T05:00:08;14.70;87.30
5226;DHT22;2632;51.666;7.146;2022-07-04T05:02:34;14.70;87.10
5226;DHT22;2632;51.666;7.146;2022-07-04T05:05:01;14.80;88.00
5226;DHT22;2632;51.666;7.146;2022-07-04T05:07:28;15.00;88.00
5226;DHT22;2632;51.666;7.146;2022-07-04T05:09:54;15.10;87.00
5226;DHT22;2632;51.666;7.146;2022-07-04T05:12:25;15.20;87.80
5226;DHT22;2632;51.666;7.146;2022-07-04T05:14:53;15.40;87.20
5226;DHT22;2632;51.666;7.146;2022-07-04T05:17:20;15.50;87.70
5226;DHT22;2632;51.666;7.146;2022-07-04T05:19:47;15.60;87.20
5226;DHT22;2632;51.666;7.146;2022-07-04T05:22:15;15.70;86.90
5226;DHT22;2632;51.666;7.146;2022-07-04T05:24:42;15.80;87.40
5226;DHT22;2632;51.666;7.146;2022-07-04T05:27:09;15.80;87.10
5226;DHT22;2632;51.666;7.146;2022-07-04T05:29:36;15.90;86.60
5226;DHT22;2632;51.666;7.146;2022-07-04T05:32:04;15.90;86.70
5226;DHT22;2632;51.666;7.146;2022-07-04T05:34:31;15.90;86.20
5226;DHT22;2632;51.666;7.146;2022-07-04T05:36:58;16.10;86.50
5226;DHT22;2632;51.666;7.146;2022-07-04T05:39:24;16.20;85.90
5226;DHT22;2632;51.666;7.146;2022-07-04T05:41:51;16.30;86.20
5226;DHT22;2632;51.666;7.146;2022-07-04T05:44:17;16.30;85.50
5226;DHT22;2632;51.666;7.146;2022-07-04T05:46:44;16.30;85.70
5226;DHT22;2632;51.666;7.146;2022-07-04T05:49:11;16.40;85.90
5226;DHT22;2632;51.666;7.146;2022-07-04T05:51:37;16.50;85.30
5226;DHT22;2632;51.666;7.146;2022-07-04T05:54:04;16.50;85.80
5226;DHT22;2632;51.666;7.146;2022-07-04T05:56:30;16.60;85.20
5226;DHT22;2632;51.666;7.146;2022-07-04T05:58:57;16.60;84.60
5226;DHT22;2632;51.666;7.146;2022-07-04T06:01:24;16.70;85.20
5226;DHT22;2632;51.666;7.146;2022-07-04T06:03:50;16.60;84.10
5226;DHT22;2632;51.666;7.146;2022-07-04T06:06:17;16.70;84.50
5226;DHT22;2632;51.666;7.146;2022-07-04T06:08:43;16.70;83.50
5226;DHT22;2632;51.666;7.146;2022-07-04T06:11:10;16.80;83.70
5226;DHT22;2632;51.666;7.146;2022-07-04T06:13:37;16.90;84.40
5226;DHT22;2632;51.666;7.146;2022-07-04T06:16:04;17.00;83.40
5226;DHT22;2632;51.666;7.146;2022-07-04T06:18:30;16.90;83.20
5226;DHT22;2632;51.666;7.146;2022-07-04T06:20:57;17.10;82.70
5226;DHT22;2632;51.666;7.146;2022-07-04T06:23:24;17.10;83.10
5226;DHT22;2632;51.666;7.146;2022-07-04T06:25:50;17.10;82.20
5226;DHT22;2632;51.666;7.146;2022-07-04T06:28:17;17.10;82.00
5226;DHT22;2632;51.666;7.146;2022-07-04T06:31:04;17.10;82.50
5226;DHT22;2632;51.666;7.146;2022-07-04T06:33:30;17.00;81.50
5226;DHT22;2632;51.666;7.146;2022-07-04T06:35:57;17.20;81.20
5226;DHT22;2632;51.666;7.146;2022-07-04T06:38:27;17.30;81.30
5226;DHT22;2632;51.666;7.146;2022-07-04T06:40:58;17.30;80.10
5226;DHT22;2632;51.666;7.146;2022-07-04T06:43:26;17.40;79.70
5226;DHT22;2632;51.666;7.146;2022-07-04T06:45:53;17.50;79.30
5226;DHT22;2632;51.666;7.146;2022-07-04T06:48:20;17.50;77.30
5226;DHT22;2632;51.666;7.146;2022-07-04T06:50:47;17.40;77.40
5226;DHT22;2632;51.666;7.146;2022-07-04T06:53:14;17.60;75.80
5226;DHT22;2632;51.666;7.146;2022-07-04T06:55:41;17.60;72.90
5226;DHT22;2632;51.666;7.146;2022-07-04T06:58:09;17.60;75.00
5226;DHT22;2632;51.666;7.146;2022-07-04T07:00:36;17.60;74.30
5226;DHT22;2632;51.666;7.146;2022-07-04T07:03:03;17.70;73.90
5226;DHT22;2632;51.666;7.146;2022-07-04T07:05:31;17.70;72.30
5226;DHT22;2632;51.666;7.146;2022-07-04T07:08:17;17.70;72.40
5226;DHT22;2632;51.666;7.146;2022-07-04T07:10:44;17.70;73.60
5226;DHT22;2632;51.666;7.146;2022-07-04T07:13:11;17.80;73.90
5226;DHT22;2632;51.666;7.146;2022-07-04T07:15:37;17.80;73.30
5226;DHT22;2632;51.666;7.146;2022-07-04T07:18:04;17.90;72.80
5226;DHT22;2632;51.666;7.146;2022-07-04T07:20:32;17.90;71.10
5226;DHT22;2632;51.666;7.146;2022-07-04T07:23:01;17.90;73.30
5226;DHT22;2632;51.666;7.146;2022-07-04T07:25:28;18.00;73.00
5226;DHT22;2632;51.666;7.146;2022-07-04T07:27:55;18.00;72.60
5226;DHT22;2632;51.666;7.146;2022-07-04T07:30:21;18.00;72.70
5226;DHT22;2632;51.666;7.146;2022-07-04T07:32:48;18.10;72.50
5226;DHT22;2632;51.666;7.146;2022-07-04T07:35:15;18.20;72.10
5226;DHT22;2632;51.666;7.146;2022-07-04T07:37:42;18.30;72.20
5226;DHT22;2632;51.666;7.146;2022-07-04T07:40:09;18.40;72.50
5226;DHT22;2632;51.666;7.146;2022-07-04T07:42:36;18.40;72.60
5226;DHT22;2632;51.666;7.146;2022-07-04T07:45:03;18.50;70.50
5226;DHT22;2632;51.666;7.146;2022-07-04T07:47:30;18.50;71.00
5226;DHT22;2632;51.666;7.146;2022-07-04T07:49:57;18.50;70.70
5226;DHT22;2632;51.666;7.146;2022-07-04T07:52:24;18.50;70.70
5226;DHT22;2632;51.666;7.146;2022-07-04T07:54:53;18.60;72.40
5226;DHT22;2632;51.666;7.146;2022-07-04T07:57:28;18.70;70.70
5226;DHT22;2632;51.666;7.146;2022-07-04T07:59:56;18.80;70.40
5226;DHT22;2632;51.666;7.146;2022-07-04T08:02:23;18.80;69.80
5226;DHT22;2632;51.666;7.146;2022-07-04T08:05:08;18.80;71.20
5226;DHT22;2632;51.666;7.146;2022-07-04T08:07:36;19.00;71.70
5226;DHT22;2632;51.666;7.146;2022-07-04T08:10:03;19.00;67.80
5226;DHT22;2632;51.666;7.146;2022-07-04T08:12:30;19.10;70.00
5226;DHT22;2632;51.666;7.146;2022-07-04T08:14:57;19.30;70.40
5226;DHT22;2632;51.666;7.146;2022-07-04T08:17:31;19.50;68.80
5226;DHT22;2632;51.666;7.146;2022-07-04T08:19:58;19.60;68.10
5226;DHT22;2632;51.666;7.146;2022-07-04T08:22:24;19.70;67.80
5226;DHT22;2632;51.666;7.146;2022-07-04T08:24:51;19.80;67.20
5226;DHT22;2632;51.666;7.146;2022-07-04T08:27:18;19.90;63.90
5226;DHT22;2632;51.666;7.146;2022-07-04T08:29:44;20.00;63.00
5226;DHT22;2632;51.666;7.146;2022-07-04T08:32:11;20.00;62.30
5226;DHT22;2632;51.666;7.146;2022-07-04T08:34:38;20.10;62.80
5226;DHT22;2632;51.666;7.146;2022-07-04T08:37:05;20.20;63.40
5226;DHT22;2632;51.666;7.146;2022-07-04T08:39:32;20.10;65.40
5226;DHT22;2632;51.666;7.146;2022-07-04T08:42:02;20.30;64.80
5226;DHT22;2632;51.666;7.146;2022-07-04T08:44:30;20.20;61.30
5226;DHT22;2632;51.666;7.146;2022-07-04T08:46:57;20.40;62.30
5226;DHT22;2632;51.666;7.146;2022-07-04T08:49:29;20.40;63.30
5226;DHT22;2632;51.666;7.146;2022-07-04T08:52:06;20.60;61.20
5226;DHT22;2632;51.666;7.146;2022-07-04T08:54:33;20.70;61.00
5226;DHT22;2632;51.666;7.146;2022-07-04T08:57:19;20.80;60.50
5226;DHT22;2632;51.666;7.146;2022-07-04T09:00:06;20.80;60.80
5226;DHT22;2632;51.666;7.146;2022-07-04T09:02:34;21.00;59.90
5226;DHT22;2632;51.666;7.146;2022-07-04T09:05:01;21.10;59.20
5226;DHT22;2632;51.666;7.146;2022-07-04T09:07:28;21.20;57.80
5226;DHT22;2632;51.666;7.146;2022-07-04T09:09:56;21.20;57.80
5226;DHT22;2632;51.666;7.146;2022-07-04T09:12:24;21.20;58.70
5226;DHT22;2632;51.666;7.146;2022-07-04T09:14:50;21.30;59.10
5226;DHT22;2632;51.666;7.146;2022-07-04T09:17:21;21.50;57.90
5226;DHT22;2632;51.666;7.146;2022-07-04T09:20:19;21.50;56.90
5226;DHT22;2632;51.666;7.146;2022-07-04T09:22:48;21.50;57.70
5226;DHT22;2632;51.666;7.146;2022-07-04T09:52:14;22.00;55.70
5226;DHT22;2632;51.666;7.146;2022-07-04T09:54:40;22.10;57.10
5226;DHT22;2632;51.666;7.146;2022-07-04T09:57:07;22.10;57.00
5226;DHT22;2632;51.666;7.146;2022-07-04T09:59:34;22.20;57.30
5226;DHT22;2632;51.666;7.146;2022-07-04T10:02:11;22.30;56.30
5226;DHT22;2632;51.666;7.146;2022-07-04T10:04:49;22.40;56.60
5226;DHT22;2632;51.666;7.146;2022-07-04T10:07:34;22.40;57.00
5226;DHT22;2632;51.666;7.146;2022-07-04T10:12:59;22.60;57.30
5226;DHT22;2632;51.666;7.146;2022-07-04T10:15:26;22.60;56.30
5226;DHT22;2632;51.666;7.146;2022-07-04T10:17:53;22.70;56.00
5226;DHT22;2632;51.666;7.146;2022-07-04T10:20:20;22.80;54.00
5226;DHT22;2632;51.666;7.146;2022-07-04T10:22:47;22.70;53.80
5226;DHT22;2632;51.666;7.146;2022-07-04T10:25:14;22.70;54.20
5226;DHT22;2632;51.666;7.146;2022-07-04T10:27:41;22.70;54.70
5226;DHT22;2632;51.666;7.146;2022-07-04T10:30:12;22.80;54.20
5226;DHT22;2632;51.666;7.146;2022-07-04T10:32:40;22.90;54.30
5226;DHT22;2632;51.666;7.146;2022-07-04T10:35:12;22.90;54.40
5226;DHT22;2632;51.666;7.146;2022-07-04T10:38:04;23.00;52.40
5226;DHT22;2632;51.666;7.146;2022-07-04T10:48:32;22.90;52.70
5226;DHT22;2632;51.666;7.146;2022-07-04T10:51:04;23.00;53.00
5226;DHT22;2632;51.666;7.146;2022-07-04T10:53:32;23.00;52.00
5226;DHT22;2632;51.666;7.146;2022-07-04T10:58:42;22.90;52.10
5226;DHT22;2632;51.666;7.146;2022-07-04T11:01:13;23.00;55.40
5226;DHT22;2632;51.666;7.146;2022-07-04T11:03:55;23.10;54.50
5226;DHT22;2632;51.666;7.146;2022-07-04T11:09:17;23.00;54.20
5226;DHT22;2632;51.666;7.146;2022-07-04T11:16:57;23.10;54.70
5226;DHT22;2632;51.666;7.146;2022-07-04T11:19:24;23.20;52.40
5226;DHT22;2632;51.666;7.146;2022-07-04T11:21:51;23.20;53.50
5226;DHT22;2632;51.666;7.146;2022-07-04T11:24:17;23.20;52.90
5226;DHT22;2632;51.666;7.146;2022-07-04T11:26:45;23.10;54.20
5226;DHT22;2632;51.666;7.146;2022-07-04T11:29:13;23.10;53.30
5226;DHT22;2632;51.666;7.146;2022-07-04T11:31:44;23.00;54.90
5226;DHT22;2632;51.666;7.146;2022-07-04T11:34:12;23.00;54.80
5226;DHT22;2632;51.666;7.146;2022-07-04T11:36:40;23.20;52.50
5226;DHT22;2632;51.666;7.146;2022-07-04T11:39:09;23.30;52.50
5226;DHT22;2632;51.666;7.146;2022-07-04T11:41:41;23.20;52.70
5226;DHT22;2632;51.666;7.146;2022-07-04T11:44:34;23.30;53.20
5226;DHT22;2632;51.666;7.146;2022-07-04T11:47:22;23.30;52.50
5226;DHT22;2632;51.666;7.146;2022-07-04T11:49:50;23.50;52.20
5226;DHT22;2632;51.666;7.146;2022-07-04T11:52:20;23.50;52.20
5226;DHT22;2632;51.666;7.146;2022-07-04T11:55:09;23.50;52.90
5226;DHT22;2632;51.666;7.146;2022-07-04T11:57:49;23.50;50.70
5226;DHT22;2632;51.666;7.146;2022-07-04T12:00:26;23.70;52.50
5226;DHT22;2632;51.666;7.146;2022-07-04T12:02:59;23.80;52.20
5226;DHT22;2632;51.666;7.146;2022-07-04T12:05:27;23.90;49.90
5226;DHT22;2632;51.666;7.146;2022-07-04T12:07:54;23.80;54.20
5226;DHT22;2632;51.666;7.146;2022-07-04T12:10:40;23.80;49.90
5226;DHT22;2632;51.666;7.146;2022-07-04T12:13:14;23.90;50.40
5226;DHT22;2632;51.666;7.146;2022-07-04T12:15:43;23.90;51.90
5226;DHT22;2632;51.666;7.146;2022-07-04T12:18:20;24.00;49.40
5226;DHT22;2632;51.666;7.146;2022-07-04T12:20:49;24.00;51.70
5226;DHT22;2632;51.666;7.146;2022-07-04T12:23:18;24.10;51.10
5226;DHT22;2632;51.666;7.146;2022-07-04T12:25:46;24.10;52.70
5226;DHT22;2632;51.666;7.146;2022-07-04T12:28:15;24.10;50.00
5226;DHT22;2632;51.666;7.146;2022-07-04T12:30:56;24.10;50.70
5226;DHT22;2632;51.666;7.146;2022-07-04T12:33:25;23.90;50.30
5226;DHT22;2632;51.666;7.146;2022-07-04T12:36:03;23.90;49.00
5226;DHT22;2632;51.666;7.146;2022-07-04T12:38:36;23.90;51.40
5226;DHT22;2632;51.666;7.146;2022-07-04T12:41:08;24.00;50.00
5226;DHT22;2632;51.666;7.146;2022-07-04T12:48:41;23.90;50.90
5226;DHT22;2632;51.666;7.146;2022-07-04T12:51:17;23.90;51.70
5226;DHT22;2632;51.666;7.146;2022-07-04T12:53:46;23.80;51.70
5226;DHT22;2632;51.666;7.146;2022-07-04T12:59:00;24.00;52.30
5226;DHT22;2632;51.666;7.146;2022-07-04T13:01:27;24.10;50.30
5226;DHT22;2632;51.666;7.146;2022-07-04T13:03:54;24.20;51.70
5226;DHT22;2632;51.666;7.146;2022-07-04T13:06:21;24.50;51.00
5226;DHT22;2632;51.666;7.146;2022-07-04T13:08:47;24.60;50.40
5226;DHT22;2632;51.666;7.146;2022-07-04T13:11:17;24.60;50.90
5226;DHT22;2632;51.666;7.146;2022-07-04T13:14:03;24.30;51.60
5226;DHT22;2632;51.666;7.146;2022-07-04T13:16:29;24.10;51.60
5226;DHT22;2632;51.666;7.146;2022-07-04T13:18:56;24.20;52.60
5226;DHT22;2632;51.666;7.146;2022-07-04T13:21:23;24.20;51.10
5226;DHT22;2632;51.666;7.146;2022-07-04T13:23:50;23.90;53.90
5226;DHT22;2632;51.666;7.146;2022-07-04T13:26:17;23.70;55.20
5226;DHT22;2632;51.666;7.146;2022-07-04T13:28:44;23.60;54.50
5226;DHT22;2632;51.666;7.146;2022-07-04T13:31:11;23.60;53.60
5226;DHT22;2632;51.666;7.146;2022-07-04T13:33:38;23.70;53.90
5226;DHT22;2632;51.666;7.146;2022-07-04T13:36:04;23.70;52.30
5226;DHT22;2632;51.666;7.146;2022-07-04T13:38:31;23.70;53.10
5226;DHT22;2632;51.666;7.146;2022-07-04T13:40:58;23.90;52.70
5226;DHT22;2632;51.666;7.146;2022-07-04T13:43:25;24.10;52.50
5226;DHT22;2632;51.666;7.146;2022-07-04T13:45:55;23.70;53.70
5226;DHT22;2632;51.666;7.146;2022-07-04T13:48:22;23.50;54.70
5226;DHT22;2632;51.666;7.146;2022-07-04T13:50:50;23.70;52.50
5226;DHT22;2632;51.666;7.146;2022-07-04T13:53:17;23.80;53.90
5226;DHT22;2632;51.666;7.146;2022-07-04T13:55:44;23.90;52.00
5226;DHT22;2632;51.666;7.146;2022-07-04T13:58:14;23.90;53.20
5226;DHT22;2632;51.666;7.146;2022-07-04T14:00:41;23.80;53.90
5226;DHT22;2632;51.666;7.146;2022-07-04T14:03:12;23.80;53.70
5226;DHT22;2632;51.666;7.146;2022-07-04T14:05:41;23.90;54.40
5226;DHT22;2632;51.666;7.146;2022-07-04T14:08:08;24.00;51.80
5226;DHT22;2632;51.666;7.146;2022-07-04T14:10:34;23.90;53.20
5226;DHT22;2632;51.666;7.146;2022-07-04T14:13:02;23.90;52.90
5226;DHT22;2632;51.666;7.146;2022-07-04T14:15:29;23.60;53.30
5226;DHT22;2632;51.666;7.146;2022-07-04T14:17:55;23.70;52.50
5226;DHT22;2632;51.666;7.146;2022-07-04T14:20:22;23.50;54.60
5226;DHT22;2632;51.666;7.146;2022-07-04T14:22:49;23.50;54.30
5226;DHT22;2632;51.666;7.146;2022-07-04T14:25:15;23.70;54.10
5226;DHT22;2632;51.666;7.146;2022-07-04T14:27:42;23.50;54.10
5226;DHT22;2632;51.666;7.146;2022-07-04T14:30:09;23.30;55.30
5226;DHT22;2632;51.666;7.146;2022-07-04T14:32:36;23.20;54.30
5226;DHT22;2632;51.666;7.146;2022-07-04T14:35:03;23.20;55.80
5226;DHT22;2632;51.666;7.146;2022-07-04T14:37:35;23.20;55.80
5226;DHT22;2632;51.666;7.146;2022-07-04T14:40:02;23.20;54.80
5226;DHT22;2632;51.666;7.146;2022-07-04T14:42:29;23.50;54.50
5226;DHT22;2632;51.666;7.146;2022-07-04T14:44:55;23.60;54.10
5226;DHT22;2632;51.666;7.146;2022-07-04T14:47:22;23.60;55.50
5226;DHT22;2632;51.666;7.146;2022-07-04T14:49:49;23.60;54.50
5226;DHT22;2632;51.666;7.146;2022-07-04T14:52:15;23.90;53.00
5226;DHT22;2632;51.666;7.146;2022-07-04T14:54:42;23.90;53.20
5226;DHT22;2632;51.666;7.146;2022-07-04T14:57:08;23.90;53.80
5226;DHT22;2632;51.666;7.146;2022-07-04T14:59:36;23.80;53.90
5226;DHT22;2632;51.666;7.146;2022-07-04T15:02:06;23.70;54.90
5226;DHT22;2632;51.666;7.146;2022-07-04T15:04:33;23.90;54.50
5226;DHT22;2632;51.666;7.146;2022-07-04T15:07:00;24.00;53.50
5226;DHT22;2632;51.666;7.146;2022-07-04T15:09:27;23.90;52.90
5226;DHT22;2632;51.666;7.146;2022-07-04T15:11:53;23.90;54.40
5226;DHT22;2632;51.666;7.146;2022-07-04T15:14:20;23.70;53.90
5226;DHT22;2632;51.666;7.146;2022-07-04T15:16:46;24.00;52.20
5226;DHT22;2632;51.666;7.146;2022-07-04T15:21:40;23.90;52.60
5226;DHT22;2632;51.666;7.146;2022-07-04T15:24:26;23.90;52.90
5226;DHT22;2632;51.666;7.146;2022-07-04T15:26:52;23.80;53.80
5226;DHT22;2632;51.666;7.146;2022-07-04T15:29:21;23.80;52.90
5226;DHT22;2632;51.666;7.146;2022-07-04T15:31:50;23.90;52.90
5226;DHT22;2632;51.666;7.146;2022-07-04T15:34:18;23.80;53.20
5226;DHT22;2632;51.666;7.146;2022-07-04T15:36:46;23.80;54.00
5226;DHT22;2632;51.666;7.146;2022-07-04T15:39:14;23.70;53.20
5226;DHT22;2632;51.666;7.146;2022-07-04T15:41:41;23.60;52.60
5226;DHT22;2632;51.666;7.146;2022-07-04T15:44:08;23.50;54.50
5226;DHT22;2632;51.666;7.146;2022-07-04T15:46:36;23.50;54.20
5226;DHT22;2632;51.666;7.146;2022-07-04T15:49:23;23.50;54.60
5226;DHT22;2632;51.666;7.146;2022-07-04T15:51:50;23.50;54.80
5226;DHT22;2632;51.666;7.146;2022-07-04T15:54:16;23.60;54.60
5226;DHT22;2632;51.666;7.146;2022-07-04T15:56:43;23.50;55.10
5226;DHT22;2632;51.666;7.146;2022-07-04T15:59:10;23.40;54.90
5226;DHT22;2632;51.666;7.146;2022-07-04T16:01:37;23.60;53.50
5226;DHT22;2632;51.666;7.146;2022-07-04T16:04:04;23.60;53.40
5226;DHT22;2632;51.666;7.146;2022-07-04T16:06:31;23.70;53.50
5226;DHT22;2632;51.666;7.146;2022-07-04T16:08:57;23.70;52.70
5226;DHT22;2632;51.666;7.146;2022-07-04T16:11:27;23.50;54.00
5226;DHT22;2632;51.666;7.146;2022-07-04T16:13:54;23.40;54.00
5226;DHT22;2632;51.666;7.146;2022-07-04T16:16:21;23.50;54.30
5226;DHT22;2632;51.666;7.146;2022-07-04T16:18:49;23.50;55.20
5226;DHT22;2632;51.666;7.146;2022-07-04T16:21:16;23.50;54.30
5226;DHT22;2632;51.666;7.146;2022-07-04T16:23:43;23.50;54.20
5226;DHT22;2632;51.666;7.146;2022-07-04T16:26:10;23.60;54.80
5226;DHT22;2632;51.666;7.146;2022-07-04T16:28:36;23.60;54.90
5226;DHT22;2632;51.666;7.146;2022-07-04T16:31:03;23.60;54.60
5226;DHT22;2632;51.666;7.146;2022-07-04T16:33:35;23.70;54.20
5226;DHT22;2632;51.666;7.146;2022-07-04T16:36:02;23.60;54.00
5226;DHT22;2632;51.666;7.146;2022-07-04T16:38:29;23.70;54.10
5226;DHT22;2632;51.666;7.146;2022-07-04T16:40:55;23.60;53.30
5226;DHT22;2632;51.666;7.146;2022-07-04T16:43:22;23.50;53.90
5226;DHT22;2632;51.666;7.146;2022-07-04T16:45:48;23.50;54.30
5226;DHT22;2632;51.666;7.146;2022-07-04T16:48:15;23.50;54.30
5226;DHT22;2632;51.666;7.146;2022-07-04T16:50:42;23.50;54.30
5226;DHT22;2632;51.666;7.146;2022-07-04T16:53:09;23.60;54.10
5226;DHT22;2632;51.666;7.146;2022-07-04T16:55:36;23.60;53.80
5226;DHT22;2632;51.666;7.146;2022-07-04T16:58:03;23.60;53.30
5226;DHT22;2632;51.666;7.146;2022-07-04T17:00:29;23.60;53.50
5226;DHT22;2632;51.666;7.146;2022-07-04T17:02:56;23.50;52.70
5226;DHT22;2632;51.666;7.146;2022-07-04T17:05:23;23.50;53.60
5226;DHT22;2632;51.666;7.146;2022-07-04T17:07:50;23.50;54.10